createdAt,value
2018-08-13T00:01:45.846Z,75.31
2018-08-13T00:04:12.157Z,75.55
2018-08-13T00:06:38.482Z,75.76
2018-08-13T00:09:04.779Z,75.77
2018-08-13T00:11:31.087Z,76.19
2018-08-13T00:13:57.394Z,76.29
2018-08-13T00:16:23.717Z,76.64
2018-08-13T00:18:50.038Z,77.08
2018-08-13T00:21:16.349Z,77.10
2018-08-13T00:23:42.658Z,77.35
2018-08-13T00:26:08.967Z,77.62
2018-08-13T00:28:35.274Z,77.82
2018-08-13T00:31:01.586Z,77.60
2018-08-13T00:33:27.912Z,77.67
2018-08-13T00:35:54.221Z,77.68
2018-08-13T00:38:20.534Z,77.88
2018-08-13T00:40:46.841Z,77.49
2018-08-13T00:43:13.146Z,77.38
2018-08-13T00:45:39.455Z,76.90
2018-08-13T00:48:05.815Z,76.82
2018-08-13T00:50:32.108Z,76.83
2018-08-13T00:52:58.417Z,77.16
2018-08-13T00:55:24.725Z,77.23
2018-08-13T00:57:51.044Z,78.25
2018-08-13T01:00:17.359Z,77.67
2018-08-13T01:02:43.734Z,77.69
2018-08-13T01:05:10.059Z,78.27
2018-08-13T01:07:36.370Z,78.61
2018-08-13T01:10:02.678Z,77.82
2018-08-13T01:12:28.991Z,77.32
2018-08-13T01:14:55.297Z,77.23
2018-08-13T01:17:21.614Z,77.78
2018-08-13T01:19:47.930Z,77.79
2018-08-13T01:22:14.234Z,77.51
2018-08-13T01:24:40.554Z,78.08
2018-08-13T01:27:06.873Z,77.51
2018-08-13T01:29:33.191Z,77.19
2018-08-13T01:31:59.495Z,77.14
2018-08-13T01:34:25.812Z,77.06
2018-08-13T01:36:52.118Z,77.39
2018-08-13T01:39:18.436Z,77.88
2018-08-13T01:41:44.750Z,77.65
2018-08-13T01:44:11.066Z,77.91
2018-08-13T01:46:37.381Z,78.47
2018-08-13T01:49:03.689Z,78.53
2018-08-13T01:51:30.045Z,78.90
2018-08-13T01:53:56.359Z,79.03
2018-08-13T01:56:22.671Z,79.28
2018-08-13T01:58:48.992Z,79.21
2018-08-13T02:01:15.329Z,78.78
2018-08-13T02:03:41.613Z,78.44
2018-08-13T02:06:07.928Z,78.83
2018-08-13T02:08:34.240Z,78.29
2018-08-13T02:11:00.558Z,78.64
2018-08-13T02:13:26.884Z,78.86
2018-08-13T02:15:53.210Z,79.19
2018-08-13T02:18:19.520Z,79.12
2018-08-13T02:20:45.828Z,78.58
2018-08-13T02:23:12.145Z,78.86
2018-08-13T02:25:38.480Z,78.88
2018-08-13T02:28:04.788Z,78.95
2018-08-13T02:30:31.106Z,78.67
2018-08-13T02:32:57.417Z,78.61
2018-08-13T02:35:23.733Z,78.90
2018-08-13T02:37:50.054Z,79.29
2018-08-13T02:40:16.389Z,79.58
2018-08-13T02:42:42.700Z,79.38
2018-08-13T02:45:09.038Z,79.40
2018-08-13T02:47:35.324Z,79.71
2018-08-13T02:50:01.632Z,79.94
2018-08-13T02:52:27.944Z,80.10
2018-08-13T02:54:54.264Z,80.47
2018-08-13T02:57:20.580Z,80.55
2018-08-13T02:59:46.896Z,80.91
2018-08-13T03:02:13.213Z,81.20
2018-08-13T03:04:39.569Z,81.50
2018-08-13T03:07:05.842Z,81.95
2018-08-13T03:09:32.149Z,82.07
2018-08-13T03:11:58.461Z,82.63
2018-08-13T03:14:24.818Z,82.60
2018-08-13T03:16:51.095Z,82.45
2018-08-13T03:19:17.405Z,81.90
2018-08-13T03:21:43.763Z,81.66
2018-08-13T03:24:10.074Z,82.12
2018-08-13T03:26:36.384Z,81.82
2018-08-13T03:29:02.701Z,81.53
2018-08-13T03:31:29.041Z,81.09
2018-08-13T03:33:55.324Z,81.29
2018-08-13T03:36:21.639Z,81.65
2018-08-13T03:38:47.943Z,82.11
2018-08-13T03:41:14.260Z,81.97
2018-08-13T03:43:40.584Z,82.37
2018-08-13T03:46:06.945Z,82.06
2018-08-13T03:48:33.266Z,81.87
2018-08-13T03:50:59.557Z,81.92
2018-08-13T03:53:25.868Z,81.73
2018-08-13T03:55:52.176Z,81.61
2018-08-13T03:58:18.528Z,81.32
2018-08-13T04:00:44.855Z,81.61
2018-08-13T04:03:11.164Z,81.41
2018-08-13T04:05:37.476Z,81.29
2018-08-13T04:08:03.783Z,80.85
2018-08-13T04:10:30.092Z,80.62
2018-08-13T04:12:56.450Z,81.01
2018-08-13T04:15:22.711Z,80.57
2018-08-13T04:17:49.023Z,79.91
2018-08-13T04:20:15.333Z,79.51
2018-08-13T04:22:41.643Z,78.47
2018-08-13T04:25:07.962Z,78.53
2018-08-13T04:27:34.282Z,77.72
2018-08-13T04:30:00.636Z,77.66
2018-08-13T04:32:26.943Z,78.11
2018-08-13T04:34:53.253Z,76.33
2018-08-13T04:37:19.570Z,75.81
2018-08-13T04:39:45.875Z,74.30
2018-08-13T04:42:12.211Z,73.40
2018-08-13T04:44:38.520Z,72.21
2018-08-13T04:47:04.831Z,72.02
2018-08-13T04:49:31.140Z,71.09
2018-08-13T04:51:57.493Z,70.28
2018-08-13T04:54:23.800Z,69.28
2018-08-13T04:56:50.115Z,68.39
2018-08-13T04:59:16.460Z,67.88
2018-08-13T05:01:42.798Z,66.05
2018-08-13T05:04:09.108Z,61.26
2018-08-13T05:06:35.474Z,57.50
2018-08-13T05:09:01.800Z,58.67
2018-08-13T05:11:28.106Z,57.82
2018-08-13T05:13:54.416Z,58.63
2018-08-13T05:16:20.733Z,60.76
2018-08-13T05:18:47.089Z,58.80
2018-08-13T05:21:13.437Z,57.86
2018-08-13T05:23:39.714Z,56.74
2018-08-13T05:26:06.031Z,55.04
2018-08-13T05:28:32.395Z,54.45
2018-08-13T05:30:58.711Z,53.47
2018-08-13T05:33:25.019Z,53.13
2018-08-13T05:35:51.330Z,53.25
2018-08-13T05:38:17.693Z,52.15
2018-08-13T05:40:43.968Z,52.22
2018-08-13T05:43:10.287Z,52.85
2018-08-13T05:45:36.595Z,54.88
2018-08-13T05:48:02.906Z,55.11
2018-08-13T05:50:29.215Z,54.15
2018-08-13T05:52:55.611Z,52.00
2018-08-13T05:55:21.845Z,50.97
2018-08-13T05:57:48.155Z,49.75
2018-08-13T06:00:14.480Z,49.67
2018-08-13T06:02:40.788Z,49.89
2018-08-13T06:05:07.101Z,48.68
2018-08-13T06:07:33.411Z,49.26
2018-08-13T06:09:59.723Z,49.60
2018-08-13T06:12:26.024Z,49.35
2018-08-13T06:14:52.344Z,49.28
2018-08-13T06:17:18.669Z,50.13
2018-08-13T06:19:44.971Z,50.96
2018-08-13T06:22:11.282Z,50.21
2018-08-13T06:24:37.595Z,50.11
2018-08-13T06:27:03.904Z,48.94
2018-08-13T06:29:30.256Z,47.85
2018-08-13T06:31:56.580Z,48.89
2018-08-13T06:34:22.886Z,49.09
2018-08-13T06:36:49.207Z,49.03
2018-08-13T06:39:15.523Z,49.60
2018-08-13T06:41:41.834Z,49.84
2018-08-13T06:44:08.190Z,50.30
2018-08-13T06:46:34.503Z,50.64
2018-08-13T06:49:00.812Z,50.13
2018-08-13T06:51:27.121Z,50.29
2018-08-13T06:53:53.453Z,51.46
2018-08-13T06:56:19.754Z,50.35
2018-08-13T06:58:46.074Z,50.46
2018-08-13T07:01:12.390Z,50.47
2018-08-13T07:03:38.704Z,50.52
2018-08-13T07:08:31.394Z,49.98
2018-08-13T07:10:57.721Z,50.25
2018-08-13T07:13:24.085Z,49.98
2018-08-13T07:15:50.453Z,49.89
2018-08-13T07:18:16.713Z,49.31
2018-08-13T07:20:43.029Z,47.72
2018-08-13T07:23:09.344Z,47.97
2018-08-13T07:25:35.784Z,47.64
2018-08-13T07:28:02.208Z,47.42
2018-08-13T07:30:28.460Z,47.09
2018-08-13T07:32:54.774Z,47.22
2018-08-13T07:35:21.099Z,46.29
2018-08-13T07:37:47.417Z,45.65
2018-08-13T07:40:13.733Z,46.87
2018-08-13T07:42:40.040Z,46.84
2018-08-13T07:45:06.365Z,45.78
2018-08-13T07:47:32.676Z,45.90
2018-08-13T07:49:58.988Z,46.18
2018-08-13T07:52:25.300Z,46.40
2018-08-13T07:54:51.611Z,46.67
2018-08-13T07:57:17.923Z,44.33
2018-08-13T07:59:44.248Z,44.12
2018-08-13T08:02:10.564Z,43.53
2018-08-13T08:04:36.884Z,43.70
2018-08-13T08:07:03.202Z,44.74
2018-08-13T08:09:29.524Z,44.49
2018-08-13T08:11:55.823Z,43.28
2018-08-13T08:14:22.132Z,42.79
2018-08-13T08:16:48.448Z,41.72
2018-08-13T08:19:14.767Z,42.85
2018-08-13T08:21:41.075Z,43.97
2018-08-13T08:24:07.398Z,43.32
2018-08-13T08:26:33.699Z,43.44
2018-08-13T08:29:00.076Z,43.64
2018-08-13T08:31:26.328Z,42.68
2018-08-13T08:33:52.634Z,43.24
2018-08-13T08:36:18.947Z,42.99
2018-08-13T08:38:45.254Z,41.79
2018-08-13T08:41:11.563Z,42.32
2018-08-13T08:43:37.872Z,40.60
2018-08-13T08:46:04.221Z,41.01
2018-08-13T08:48:30.508Z,41.27
2018-08-13T08:50:56.815Z,40.33
2018-08-13T08:53:23.124Z,39.13
2018-08-13T08:55:49.436Z,37.95
2018-08-13T08:58:15.743Z,39.20
2018-08-13T09:00:42.100Z,38.54
2018-08-13T09:03:08.360Z,36.93
2018-08-13T09:05:34.667Z,36.73
2018-08-13T09:08:00.980Z,37.84
2018-08-13T09:10:27.290Z,37.33
2018-08-13T09:12:53.596Z,36.61
2018-08-13T09:15:19.905Z,37.44
2018-08-13T09:17:46.251Z,36.89
2018-08-13T09:20:12.560Z,36.23
2018-08-13T09:22:38.873Z,36.52
2018-08-13T09:25:05.185Z,36.22
2018-08-13T09:27:31.492Z,35.67
2018-08-13T09:29:57.802Z,34.28
2018-08-13T09:32:24.111Z,34.92
2018-08-13T09:34:50.435Z,36.23
2018-08-13T09:37:16.741Z,35.05
2018-08-13T09:39:43.060Z,34.67
2018-08-13T09:42:09.360Z,34.79
2018-08-13T09:44:35.667Z,33.89
2018-08-13T09:47:01.982Z,33.16
2018-08-13T09:49:28.343Z,32.58
2018-08-13T09:51:54.657Z,33.81
2018-08-13T09:54:20.976Z,33.62
2018-08-13T09:56:47.285Z,33.69
2018-08-13T09:59:13.595Z,32.27
2018-08-13T10:01:39.910Z,33.34
2018-08-13T10:04:06.226Z,33.31
2018-08-13T10:06:32.535Z,32.94
2018-08-13T10:08:58.845Z,33.44
2018-08-13T10:11:25.163Z,33.03
2018-08-13T10:13:51.483Z,32.91
2018-08-13T10:16:17.793Z,32.79
2018-08-13T10:18:44.176Z,33.03
2018-08-13T10:21:10.464Z,32.17
2018-08-13T10:23:36.768Z,33.32
2018-08-13T10:26:03.088Z,32.40
2018-08-13T10:28:29.396Z,31.83
2018-08-13T10:30:55.718Z,31.14
2018-08-13T10:33:22.094Z,31.53
2018-08-13T10:35:48.395Z,31.75
2018-08-13T10:38:14.754Z,30.55
2018-08-13T10:40:41.071Z,30.68
2018-08-13T10:43:07.388Z,29.63
2018-08-13T10:45:33.705Z,31.62
2018-08-13T10:48:00.054Z,31.45
2018-08-13T10:50:26.361Z,30.93
2018-08-13T10:52:52.677Z,32.21
2018-08-13T10:55:18.999Z,31.90
2018-08-13T10:57:45.322Z,30.55
2018-08-13T11:00:11.693Z,31.15
2018-08-13T11:02:38.001Z,32.41
2018-08-13T11:05:04.315Z,32.53
2018-08-13T11:07:30.622Z,32.17
2018-08-13T11:09:56.987Z,32.31
2018-08-13T11:12:23.299Z,31.34
2018-08-13T11:14:49.608Z,31.62
2018-08-13T11:17:15.919Z,31.60
2018-08-13T11:19:42.230Z,31.99
2018-08-13T11:22:08.549Z,31.33
2018-08-13T11:24:34.856Z,30.53
2018-08-13T11:27:01.169Z,30.99
2018-08-13T11:29:27.498Z,30.60
2018-08-13T11:31:53.812Z,31.57
2018-08-13T11:34:20.120Z,30.94
2018-08-13T11:36:46.444Z,31.62
2018-08-13T11:39:12.756Z,31.75
2018-08-13T11:41:39.122Z,31.78
2018-08-13T11:44:05.443Z,31.19
2018-08-13T11:46:31.753Z,30.66
2018-08-13T11:48:58.070Z,29.92
2018-08-13T11:51:24.429Z,29.71
2018-08-13T11:53:50.747Z,30.06
2018-08-13T11:56:17.071Z,31.25
2018-08-13T11:58:43.372Z,32.08
2018-08-13T12:01:09.764Z,32.56
2018-08-13T12:03:36.015Z,32.80
2018-08-13T12:06:02.322Z,32.94
2018-08-13T12:08:28.705Z,32.35
2018-08-13T12:10:55.011Z,31.79
2018-08-13T12:13:21.337Z,31.87
2018-08-13T12:15:47.660Z,31.09
2018-08-13T12:18:13.970Z,30.79
2018-08-13T12:20:40.281Z,31.39
2018-08-13T12:23:06.597Z,31.29
2018-08-13T12:25:32.904Z,31.12
2018-08-13T12:27:59.219Z,30.97
2018-08-13T12:30:25.532Z,31.23
2018-08-13T12:32:51.850Z,31.57
2018-08-13T12:35:18.162Z,31.85
2018-08-13T12:37:44.467Z,32.36
2018-08-13T12:40:10.793Z,31.71
2018-08-13T12:42:37.113Z,31.95
2018-08-13T12:45:03.431Z,30.91
2018-08-13T12:47:29.768Z,31.84
2018-08-13T12:49:56.088Z,32.08
2018-08-13T12:52:22.448Z,32.48
2018-08-13T12:54:48.764Z,33.29
2018-08-13T12:57:15.088Z,33.82
2018-08-13T12:59:41.425Z,34.39
2018-08-13T13:02:07.750Z,34.22
2018-08-13T13:04:34.084Z,33.69
2018-08-13T13:07:00.387Z,33.86
2018-08-13T13:09:26.733Z,33.25
2018-08-13T13:11:53.044Z,33.47
2018-08-13T13:14:19.363Z,33.13
2018-08-13T13:16:45.739Z,33.05
2018-08-13T13:19:12.044Z,33.61
2018-08-13T13:21:38.387Z,33.79
2018-08-13T13:24:04.700Z,34.14
2018-08-13T13:26:31.053Z,34.53
2018-08-13T13:28:57.355Z,34.86
2018-08-13T13:31:23.693Z,35.65
2018-08-13T13:33:50.011Z,35.22
2018-08-13T13:36:16.394Z,35.50
2018-08-13T13:38:42.756Z,35.65
2018-08-13T13:41:09.069Z,35.75
2018-08-13T13:43:35.380Z,35.96
2018-08-13T13:46:01.694Z,35.78
2018-08-13T13:48:28.057Z,36.17
2018-08-13T13:50:54.364Z,36.43
2018-08-13T13:53:20.681Z,36.27
2018-08-13T13:55:46.988Z,35.81
2018-08-13T13:58:13.296Z,35.63
2018-08-13T14:00:39.639Z,35.66
2018-08-13T14:03:05.948Z,35.90
2018-08-13T14:05:32.258Z,36.02
2018-08-13T14:07:58.591Z,36.04
2018-08-13T14:10:24.909Z,35.89
2018-08-13T14:12:51.221Z,36.13
2018-08-13T14:15:17.536Z,35.90
2018-08-13T14:17:43.880Z,36.00
2018-08-13T14:20:10.199Z,36.08
2018-08-13T14:22:36.518Z,36.40
2018-08-13T14:25:02.831Z,36.34
2018-08-13T14:27:29.140Z,36.37
2018-08-13T14:29:55.449Z,36.70
2018-08-13T14:32:21.798Z,36.82
2018-08-13T14:34:48.258Z,36.13
2018-08-13T14:37:14.471Z,36.66
2018-08-13T14:39:40.783Z,36.58
2018-08-13T14:42:07.139Z,36.26
2018-08-13T14:44:33.444Z,36.66
2018-08-13T14:46:59.791Z,36.77
2018-08-13T14:49:26.101Z,36.61
2018-08-13T14:51:52.453Z,36.76
2018-08-13T14:54:18.759Z,36.20
2018-08-13T14:56:45.231Z,36.51
2018-08-13T14:59:11.418Z,36.53
2018-08-13T15:01:37.749Z,36.53
2018-08-13T15:04:04.101Z,36.87
2018-08-13T15:06:30.408Z,36.68
2018-08-13T15:08:56.765Z,36.62
2018-08-13T15:11:23.067Z,36.83
2018-08-13T15:13:49.389Z,36.74
2018-08-13T15:16:15.701Z,36.83
2018-08-13T15:18:42.022Z,37.07
2018-08-13T15:21:08.368Z,36.45
2018-08-13T15:23:34.681Z,36.80
2018-08-13T15:26:01.047Z,36.54
2018-08-13T15:28:27.370Z,36.69
2018-08-13T15:30:53.700Z,37.04
2018-08-13T15:33:20.122Z,37.03
2018-08-13T15:35:46.394Z,37.22
2018-08-13T15:38:12.704Z,37.05
2018-08-13T15:40:39.030Z,36.98
2018-08-13T15:43:05.352Z,37.04
2018-08-13T15:45:31.663Z,37.62
2018-08-13T15:47:58.012Z,37.72
2018-08-13T15:50:24.277Z,37.88
2018-08-13T15:52:50.588Z,37.91
2018-08-13T15:55:16.924Z,38.50
2018-08-13T15:57:43.226Z,38.58
2018-08-13T16:00:09.539Z,38.44
2018-08-13T16:02:35.859Z,38.33
2018-08-13T16:05:02.171Z,38.48
2018-08-13T16:07:28.494Z,38.87
2018-08-13T16:09:54.826Z,39.32
2018-08-13T16:12:21.146Z,39.59
2018-08-13T16:14:47.458Z,39.43
2018-08-13T16:17:13.779Z,40.08
2018-08-13T16:19:40.091Z,39.92
2018-08-13T16:22:06.418Z,40.00
2018-08-13T16:24:32.743Z,40.17
2018-08-13T16:26:59.062Z,40.16
2018-08-13T16:29:25.372Z,40.08
2018-08-13T16:31:51.687Z,40.25
2018-08-13T16:34:17.999Z,40.00
2018-08-13T16:36:44.316Z,40.25
2018-08-13T16:39:10.638Z,40.04
2018-08-13T16:41:36.944Z,40.06
2018-08-13T16:44:03.282Z,40.07
2018-08-13T16:46:29.618Z,40.28
2018-08-13T16:48:55.927Z,40.31
2018-08-13T16:51:22.240Z,40.29
2018-08-13T16:53:48.623Z,40.54
2018-08-13T16:56:15.007Z,40.78
2018-08-13T16:58:41.233Z,40.59
2018-08-13T17:01:07.539Z,40.71
2018-08-13T17:03:33.862Z,40.93
2018-08-13T17:06:00.185Z,40.93
2018-08-13T17:08:26.520Z,40.83
2018-08-13T17:10:52.852Z,41.32
2018-08-13T17:13:19.169Z,41.59
2018-08-13T17:15:45.497Z,41.75
2018-08-13T17:18:11.808Z,42.07
2018-08-13T17:20:38.134Z,42.45
2018-08-13T17:23:04.439Z,42.77
2018-08-13T17:25:30.748Z,43.26
2018-08-13T17:27:57.063Z,43.76
2018-08-13T17:30:23.384Z,44.09
2018-08-13T17:32:49.696Z,44.28
2018-08-13T17:35:16.000Z,44.47
2018-08-13T17:37:42.322Z,44.90
2018-08-13T17:40:08.655Z,45.27
2018-08-13T17:42:34.998Z,45.63
2018-08-13T17:45:01.297Z,45.96
2018-08-13T17:47:27.623Z,46.41
2018-08-13T17:49:53.926Z,46.43
2018-08-13T17:52:20.254Z,46.56
2018-08-13T17:54:46.559Z,47.16
2018-08-13T17:57:12.863Z,47.62
2018-08-13T17:59:39.217Z,47.97
2018-08-13T18:02:05.554Z,48.44
2018-08-13T18:04:31.855Z,48.64
2018-08-13T18:06:58.211Z,48.50
2018-08-13T18:09:24.546Z,48.30
2018-08-13T18:11:50.861Z,48.69
2018-08-13T18:14:17.181Z,49.00
2018-08-13T18:16:43.505Z,48.94
2018-08-13T18:19:09.886Z,49.28
2018-08-13T18:21:36.150Z,49.20
2018-08-13T18:24:02.460Z,48.59
2018-08-13T18:26:28.787Z,48.84
2018-08-13T18:28:55.112Z,49.03
2018-08-13T18:31:21.420Z,49.15
2018-08-13T18:33:47.764Z,49.24
2018-08-13T18:36:14.091Z,49.51
2018-08-13T18:38:40.419Z,49.00
2018-08-13T18:41:06.742Z,49.02
2018-08-13T18:43:33.107Z,49.55
2018-08-13T18:45:59.421Z,49.73
2018-08-13T18:48:25.727Z,49.74
2018-08-13T18:50:52.041Z,49.93
2018-08-13T18:53:18.367Z,50.09
2018-08-13T18:55:44.686Z,50.36
2018-08-13T18:58:11.099Z,50.56
2018-08-13T19:00:37.431Z,50.24
2018-08-13T19:03:03.740Z,50.01
2018-08-13T19:05:30.067Z,49.76
2018-08-13T19:07:56.389Z,49.63
2018-08-13T19:10:22.701Z,49.56
2018-08-13T19:12:49.058Z,49.61
2018-08-13T19:15:15.379Z,49.44
2018-08-13T19:17:41.735Z,49.70
2018-08-13T19:20:08.079Z,49.63
2018-08-13T19:22:34.446Z,49.63
2018-08-13T19:25:00.754Z,49.68
2018-08-13T19:27:27.106Z,50.18
2018-08-13T19:29:53.475Z,50.81
2018-08-13T19:32:19.797Z,51.20
2018-08-13T19:34:46.149Z,51.74
2018-08-13T19:37:12.455Z,52.62
2018-08-13T19:39:38.783Z,52.99
2018-08-13T19:42:05.151Z,53.56
2018-08-13T19:44:31.489Z,54.27
2018-08-13T19:46:57.789Z,55.13
2018-08-13T19:49:24.110Z,55.15
2018-08-13T19:51:50.434Z,55.60
2018-08-13T19:54:16.758Z,55.91
2018-08-13T19:56:43.067Z,55.90
2018-08-13T19:59:09.392Z,56.15
2018-08-13T20:01:35.714Z,56.05
2018-08-13T20:04:02.083Z,55.92
2018-08-13T20:06:28.392Z,55.84
2018-08-13T20:08:54.698Z,55.98
2018-08-13T20:11:21.022Z,55.59
2018-08-13T20:13:47.333Z,55.88
2018-08-13T20:16:13.640Z,55.79
2018-08-13T20:18:39.965Z,55.98
2018-08-13T20:21:06.277Z,56.25
2018-08-13T20:23:32.587Z,56.29
2018-08-13T20:25:58.912Z,56.30
2018-08-13T20:28:25.238Z,56.29
2018-08-13T20:30:51.567Z,56.42
2018-08-13T20:33:17.875Z,56.28
2018-08-13T20:35:44.188Z,55.96
2018-08-13T20:38:10.510Z,55.91
2018-08-13T20:40:36.820Z,55.82
2018-08-13T20:43:03.128Z,55.79
2018-08-13T20:45:29.455Z,55.60
2018-08-13T20:47:55.768Z,55.35
2018-08-13T20:50:22.103Z,54.99
2018-08-13T20:52:48.405Z,55.06
2018-08-13T20:55:14.769Z,54.86
2018-08-13T20:57:41.095Z,54.99
2018-08-13T21:00:07.473Z,54.85
2018-08-13T21:02:33.778Z,55.15
2018-08-13T21:05:00.103Z,55.19
2018-08-13T21:07:26.417Z,54.94
2018-08-13T21:09:52.769Z,54.45
2018-08-13T21:12:19.072Z,54.56
2018-08-13T21:14:45.429Z,54.75
2018-08-13T21:17:11.781Z,54.41
2018-08-13T21:19:38.098Z,54.51
2018-08-13T21:22:04.421Z,54.59
2018-08-13T21:24:30.732Z,54.69
2018-08-13T21:26:57.053Z,54.79
2018-08-13T21:29:23.369Z,54.30
2018-08-13T21:31:49.691Z,54.28
2018-08-13T21:34:16.007Z,54.51
2018-08-13T21:36:42.334Z,54.26
2018-08-13T21:39:08.649Z,54.38
2018-08-13T21:41:34.967Z,54.42
2018-08-13T21:44:01.278Z,54.44
2018-08-13T21:46:27.593Z,54.96
2018-08-13T21:48:53.905Z,54.92
2018-08-13T21:51:20.221Z,55.08
2018-08-13T21:53:46.578Z,55.09
2018-08-13T21:56:12.884Z,55.32
2018-08-13T21:58:39.205Z,55.17
2018-08-13T22:01:05.520Z,55.09
2018-08-13T22:03:31.825Z,55.31
2018-08-13T22:05:58.136Z,55.21
2018-08-13T22:08:24.461Z,55.58
2018-08-13T22:10:50.769Z,55.61
2018-08-13T22:13:17.080Z,55.74
2018-08-13T22:15:43.388Z,56.05
2018-08-13T22:18:09.702Z,56.18
2018-08-13T22:20:36.015Z,56.46
2018-08-13T22:23:02.318Z,56.62
2018-08-13T22:25:28.628Z,56.62
2018-08-13T22:27:54.996Z,56.74
2018-08-13T22:30:21.285Z,56.61
2018-08-13T22:32:47.596Z,56.75
2018-08-13T22:35:13.945Z,56.99
2018-08-13T22:37:40.344Z,56.94
2018-08-13T22:40:06.564Z,57.11
2018-08-13T22:42:32.867Z,57.38
2018-08-13T22:44:59.218Z,57.38
2018-08-13T22:47:25.568Z,57.59
2018-08-13T22:49:51.882Z,57.60
2018-08-13T22:52:18.198Z,57.72
2018-08-13T22:54:44.510Z,57.83
2018-08-13T22:57:10.861Z,58.22
2018-08-13T22:59:37.168Z,58.29
2018-08-13T23:02:03.476Z,58.45
2018-08-13T23:04:29.787Z,58.79
2018-08-13T23:06:56.119Z,59.11
2018-08-13T23:09:22.455Z,59.09
2018-08-13T23:11:48.790Z,59.63
2018-08-13T23:14:15.101Z,59.60
2018-08-13T23:16:41.413Z,59.97
2018-08-13T23:19:07.722Z,60.15
2018-08-13T23:21:34.023Z,60.41
2018-08-13T23:24:00.338Z,60.55
2018-08-13T23:26:26.643Z,60.82
2018-08-13T23:28:52.957Z,60.72
2018-08-13T23:31:19.272Z,61.23
2018-08-13T23:33:45.582Z,61.42
2018-08-13T23:36:11.893Z,61.50
2018-08-13T23:38:38.205Z,61.68
2018-08-13T23:41:04.507Z,61.89
2018-08-13T23:43:30.815Z,61.90
2018-08-13T23:45:57.120Z,62.06
2018-08-13T23:48:23.423Z,62.34
2018-08-13T23:50:49.732Z,62.19
2018-08-13T23:53:16.045Z,62.52
2018-08-13T23:55:42.351Z,62.75
2018-08-13T23:58:08.662Z,62.79
